^^
Station Historical Data
 
Daily Summary for October 23, 2014 Units:  English    Metric   Both
« Previous Day
Next Day »
Daily Weekly Monthly Yearly Custom
  Current: High: Low: Average:
Temperature: 65.3 °F 66.4 °F 43.7 °F 50.3 °F
Dew Point: 36.2 °F 45.1 °F 31.2 °F 39.9 °F
Humidity: 34% 91% 28% 72%
Wind Speed: 6.5mph 7.3mph 0.1mph 3.3mph
Wind Gust: 7.6mph 10.7mph - -
WindSE - - SSE
Pressure: 30.04 in 30.15 in 30.04 in -
Precipitation: 0.00 in      
Historical Graphs
 
 
Tabular Data for October 23, 2014
Time Temperature Dew Point Pressure Wind Wind Speed Wind Gust Humidity Rainfall Rate (Hourly)
00:03 44.8 °F 40.5 °F 30.15 in SSE 3.4 mph 4.5 mph 85% 0.00 in
00:08 44.8 °F 40.5 °F 30.15 in NW 3.8 mph 4.5 mph 85% 0.00 in
00:13 45.3 °F 41.1 °F 30.15 in WNW 3.2 mph 4.5 mph 85% 0.00 in
00:18 44.9 °F 40.4 °F 30.15 in SSE 3.4 mph 6.0 mph 84% 0.00 in
00:23 44.8 °F 40.2 °F 30.14 in SE 3.7 mph 6.0 mph 84% 0.00 in
00:28 44.9 °F 40.4 °F 30.14 in ESE 3.4 mph 5.4 mph 84% 0.00 in
00:33 44.9 °F 40.4 °F 30.14 in SE 3.6 mph 6.0 mph 84% 0.00 in
00:38 44.9 °F 40.1 °F 30.14 in SE 4.1 mph 9.2 mph 83% 0.00 in
00:43 44.9 °F 40.1 °F 30.14 in SE 4.2 mph 9.2 mph 83% 0.00 in
00:48 45.1 °F 40.3 °F 30.14 in South 3.0 mph 9.2 mph 83% 0.00 in
00:53 45.1 °F 40.0 °F 30.14 in SSE 2.2 mph 6.0 mph 82% 0.00 in
00:58 45.1 °F 40.3 °F 30.13 in ESE 2.6 mph 6.0 mph 83% 0.00 in
01:03 45.1 °F 40.3 °F 30.13 in ESE 1.8 mph 6.0 mph 83% 0.00 in
01:08 45.1 °F 40.0 °F 30.13 in ESE 1.1 mph 5.4 mph 82% 0.00 in
01:13 45.1 °F 40.3 °F 30.12 in ESE 1.9 mph 5.4 mph 83% 0.00 in
01:18 45.1 °F 40.0 °F 30.13 in East 2.5 mph 5.4 mph 82% 0.00 in
01:23 45.1 °F 40.3 °F 30.13 in SE 2.5 mph 3.8 mph 83% 0.00 in
01:28 45.1 °F 40.3 °F 30.13 in SSE 2.6 mph 4.5 mph 83% 0.00 in
01:33 45.3 °F 40.4 °F 30.13 in South 2.2 mph 4.5 mph 83% 0.00 in
01:38 45.1 °F 40.3 °F 30.13 in SSE 2.0 mph 3.1 mph 83% 0.00 in
01:43 45.1 °F 40.0 °F 30.13 in SSE 2.7 mph 4.5 mph 82% 0.00 in
01:48 45.1 °F 40.3 °F 30.13 in WSW 2.5 mph 4.5 mph 83% 0.00 in
01:53 44.9 °F 40.1 °F 30.14 in NW 1.9 mph 4.5 mph 83% 0.00 in
01:58 44.9 °F 40.1 °F 30.13 in NNW 1.7 mph 4.5 mph 83% 0.00 in
02:03 44.9 °F 40.1 °F 30.13 in NW 1.2 mph 3.1 mph 83% 0.00 in
02:08 44.9 °F 40.1 °F 30.13 in West 0.6 mph 1.6 mph 83% 0.00 in
02:13 44.9 °F 40.1 °F 30.13 in South 1.2 mph 2.2 mph 83% 0.00 in
02:18 44.9 °F 40.1 °F 30.13 in SSE 2.4 mph 4.5 mph 83% 0.00 in
02:23 44.8 °F 40.2 °F 30.13 in South 2.7 mph 4.5 mph 84% 0.00 in
02:28 44.8 °F 40.2 °F 30.13 in SSE 2.7 mph 3.8 mph 84% 0.00 in
02:33 44.8 °F 40.2 °F 30.13 in SE 3.2 mph 4.5 mph 84% 0.00 in
02:38 44.8 °F 40.2 °F 30.13 in SE 3.0 mph 6.0 mph 84% 0.00 in
02:43 44.8 °F 40.2 °F 30.14 in ESE 2.6 mph 6.0 mph 84% 0.00 in
02:48 44.9 °F 40.4 °F 30.13 in SE 2.4 mph 3.1 mph 84% 0.00 in
02:53 44.8 °F 40.2 °F 30.12 in SSE 2.3 mph 4.5 mph 84% 0.00 in
02:58 44.8 °F 40.2 °F 30.12 in South 2.9 mph 6.0 mph 84% 0.00 in
03:03 44.8 °F 40.2 °F 30.13 in SE 3.5 mph 6.0 mph 84% 0.00 in
03:08 44.8 °F 40.2 °F 30.12 in SE 3.4 mph 6.0 mph 84% 0.00 in
03:13 44.8 °F 40.2 °F 30.12 in SE 2.9 mph 3.8 mph 84% 0.00 in
03:18 44.8 °F 40.2 °F 30.12 in ESE 2.8 mph 4.5 mph 84% 0.00 in
03:23 44.9 °F 40.4 °F 30.12 in ESE 3.0 mph 4.5 mph 84% 0.00 in
03:28 44.8 °F 40.2 °F 30.12 in SSE 2.9 mph 4.5 mph 84% 0.00 in
03:33 44.6 °F 40.1 °F 30.11 in SSE 2.6 mph 3.8 mph 84% 0.00 in
03:38 44.6 °F 40.1 °F 30.11 in South 2.6 mph 3.8 mph 84% 0.00 in
03:43 44.4 °F 39.9 °F 30.11 in South 3.0 mph 3.8 mph 84% 0.00 in
03:48 44.4 °F 39.9 °F 30.11 in South 2.9 mph 3.8 mph 84% 0.00 in
03:53 44.4 °F 40.2 °F 30.11 in SE 2.3 mph 3.8 mph 85% 0.00 in
03:58 44.4 °F 40.2 °F 30.11 in SE 1.9 mph 3.1 mph 85% 0.00 in
04:04 44.4 °F 40.2 °F 30.12 in SE 2.2 mph 3.1 mph 85% 0.00 in
04:09 44.6 °F 40.4 °F 30.11 in SE 2.2 mph 2.2 mph 85% 0.00 in
04:14 44.4 °F 40.2 °F 30.11 in SSE 2.6 mph 3.8 mph 85% 0.00 in
04:19 44.2 °F 40.0 °F 30.12 in SSW 2.8 mph 3.8 mph 85% 0.00 in
04:24 44.2 °F 40.3 °F 30.11 in SSE 2.4 mph 3.8 mph 86% 0.00 in
04:29 44.2 °F 40.3 °F 30.12 in SE 2.1 mph 3.8 mph 86% 0.00 in
04:34 44.2 °F 40.3 °F 30.11 in SSE 2.4 mph 4.5 mph 86% 0.00 in
04:39 44.2 °F 40.3 °F 30.11 in South 2.4 mph 4.5 mph 86% 0.00 in
04:44 44.0 °F 40.1 °F 30.11 in South 2.7 mph 5.4 mph 86% 0.00 in
04:49 43.9 °F 40.0 °F 30.11 in South 2.8 mph 5.4 mph 86% 0.00 in
04:54 43.9 °F 40.2 °F 30.11 in South 3.0 mph 4.5 mph 87% 0.00 in
04:59 43.7 °F 40.1 °F 30.11 in SSE 3.6 mph 4.5 mph 87% 0.00 in
05:04 43.7 °F 40.1 °F 30.11 in South 3.6 mph 4.5 mph 87% 0.00 in
05:09 43.7 °F 40.4 °F 30.12 in South 3.7 mph 3.8 mph 88% 0.00 in
05:14 43.9 °F 40.5 °F 30.12 in South 2.1 mph 3.8 mph 88% 0.00 in
05:19 43.9 °F 40.5 °F 30.12 in South 1.8 mph 3.8 mph 88% 0.00 in
05:24 43.9 °F 40.5 °F 30.11 in South 2.9 mph 4.5 mph 88% 0.00 in
05:29 43.9 °F 40.5 °F 30.12 in SSE 3.2 mph 5.4 mph 88% 0.00 in
05:34 43.9 °F 40.5 °F 30.12 in SSE 3.6 mph 5.4 mph 88% 0.00 in
05:39 43.9 °F 40.8 °F 30.12 in SSW 2.8 mph 5.4 mph 89% 0.00 in
05:44 43.9 °F 40.8 °F 30.12 in SSE 2.1 mph 3.1 mph 89% 0.00 in
05:49 43.9 °F 40.8 °F 30.12 in SSE 2.7 mph 5.4 mph 89% 0.00 in
05:54 43.9 °F 40.8 °F 30.12 in SSE 3.4 mph 5.4 mph 89% 0.00 in
05:59 43.9 °F 40.8 °F 30.12 in SSE 3.3 mph 6.0 mph 89% 0.00 in
06:04 43.9 °F 40.8 °F 30.12 in SSE 2.3 mph 6.0 mph 89% 0.00 in
06:09 43.7 °F 40.7 °F 30.12 in SE 2.0 mph 3.8 mph 89% 0.00 in
06:14 43.7 °F 40.7 °F 30.12 in SSE 2.5 mph 3.8 mph 89% 0.00 in
06:19 43.7 °F 40.7 °F 30.12 in South 2.8 mph 3.8 mph 89% 0.00 in
06:24 43.7 °F 40.9 °F 30.13 in South 2.9 mph 6.0 mph 90% 0.00 in
06:29 43.9 °F 41.1 °F 30.13 in SE 2.5 mph 6.0 mph 90% 0.00 in
06:34 44.0 °F 41.3 °F 30.14 in NNE 2.0 mph 3.1 mph 90% 0.00 in
06:39 44.0 °F 41.0 °F 30.14 in SE 1.3 mph 3.1 mph 89% 0.00 in
06:44 44.0 °F 41.0 °F 30.14 in SSE 1.4 mph 3.1 mph 89% 0.00 in
06:49 44.2 °F 41.2 °F 30.14 in SE 1.8 mph 3.1 mph 89% 0.00 in
06:54 44.2 °F 41.2 °F 30.13 in SSE 1.6 mph 2.2 mph 89% 0.00 in
06:59 44.2 °F 41.2 °F 30.13 in South 1.5 mph 2.2 mph 89% 0.00 in
07:04 44.2 °F 41.2 °F 30.13 in SSW 1.5 mph 2.2 mph 89% 0.00 in
07:09 44.2 °F 41.2 °F 30.12 in South 1.4 mph 1.6 mph 89% 0.00 in
07:14 44.2 °F 41.2 °F 30.12 in South 1.5 mph 3.1 mph 89% 0.00 in
07:19 44.2 °F 41.2 °F 30.12 in South 1.6 mph 3.1 mph 89% 0.00 in
07:24 44.0 °F 41.0 °F 30.12 in South 1.6 mph 3.1 mph 89% 0.00 in
07:29 44.0 °F 41.0 °F 30.12 in South 1.1 mph 3.1 mph 89% 0.00 in
07:34 44.0 °F 41.0 °F 30.12 in SSW 0.7 mph 2.2 mph 89% 0.00 in
07:39 44.0 °F 41.3 °F 30.12 in SE 0.9 mph 1.6 mph 90% 0.00 in
07:44 43.9 °F 41.1 °F 30.12 in SSE 1.4 mph 3.1 mph 90% 0.00 in
07:49 44.0 °F 41.3 °F 30.13 in SSE 1.6 mph 3.1 mph 90% 0.00 in
07:54 43.9 °F 41.1 °F 30.13 in ESE 1.2 mph 3.8 mph 90% 0.00 in
07:59 43.9 °F 41.1 °F 30.12 in ENE 1.9 mph 3.8 mph 90% 0.00 in
08:04 43.9 °F 41.1 °F 30.12 in South 2.4 mph 3.8 mph 90% 0.00 in
08:09 43.9 °F 41.1 °F 30.12 in South 1.9 mph 2.2 mph 90% 0.00 in
08:14 43.9 °F 41.1 °F 30.12 in South 0.9 mph 2.2 mph 90% 0.00 in
08:19 44.0 °F 41.3 °F 30.12 in West 0.1 mph 0.7 mph 90% 0.00 in
08:25 44.0 °F 41.3 °F 30.12 in Calm     90% 0.00 in
08:30 44.2 °F 41.5 °F 30.13 in North 0.3 mph 0.7 mph 90% 0.00 in
08:35 44.4 °F 41.9 °F 30.13 in NNW 0.4 mph 1.6 mph 91% 0.00 in
08:40 44.6 °F 41.8 °F 30.12 in ESE 0.6 mph 1.6 mph 90% 0.00 in
08:45 44.8 °F 42.0 °F 30.13 in SE 1.1 mph 2.2 mph 90% 0.00 in
08:50 44.9 °F 42.2 °F 30.13 in South 1.4 mph 3.8 mph 90% 0.00 in
08:55 45.1 °F 42.4 °F 30.13 in South 1.7 mph 3.8 mph 90% 0.00 in
09:00 45.3 °F 42.3 °F 30.13 in South 2.1 mph 3.8 mph 89% 0.00 in
09:05 45.3 °F 42.3 °F 30.13 in South 2.1 mph 3.8 mph 89% 0.00 in
09:10 45.7 °F 42.3 °F 30.12 in SSE 2.0 mph 3.8 mph 88% 0.00 in
09:15 45.8 °F 42.5 °F 30.12 in SSE 2.5 mph 3.8 mph 88% 0.00 in
09:20 46.2 °F 42.8 °F 30.12 in SSE 2.5 mph 3.8 mph 88% 0.00 in
09:25 46.6 °F 43.2 °F 30.13 in SE 2.4 mph 3.8 mph 88% 0.00 in
09:30 46.7 °F 43.1 °F 30.12 in SSE 2.3 mph 3.8 mph 87% 0.00 in
09:35 46.9 °F 43.3 °F 30.12 in SSE 2.4 mph 3.8 mph 87% 0.00 in
09:40 47.3 °F 43.3 °F 30.12 in SSE 2.8 mph 3.8 mph 86% 0.00 in
09:45 47.5 °F 43.5 °F 30.12 in SE 2.4 mph 3.8 mph 86% 0.00 in
09:50 47.6 °F 43.7 °F 30.13 in SE 2.1 mph 3.8 mph 86% 0.00 in
09:55 48.0 °F 43.7 °F 30.12 in SSE 2.3 mph 3.8 mph 85% 0.00 in
10:00 48.2 °F 43.3 °F 30.12 in SSE 3.2 mph 5.4 mph 83% 0.00 in
10:05 48.2 °F 43.3 °F 30.12 in South 4.3 mph 5.4 mph 83% 0.00 in
10:10 48.5 °F 43.3 °F 30.12 in South 4.5 mph 6.0 mph 82% 0.00 in
10:15 48.5 °F 43.3 °F 30.12 in South 4.0 mph 6.0 mph 82% 0.00 in
10:20 48.9 °F 43.7 °F 30.12 in SSW 3.3 mph 4.5 mph 82% 0.00 in
10:25 49.8 °F 44.2 °F 30.13 in SE 3.6 mph 6.0 mph 81% 0.00 in
10:30 50.3 °F 44.1 °F 30.13 in East 4.2 mph 7.6 mph 79% 0.00 in
10:35 51.2 °F 44.6 °F 30.13 in East 4.6 mph 7.6 mph 78% 0.00 in
10:40 52.0 °F 45.0 °F 30.13 in ESE 4.3 mph 7.6 mph 77% 0.00 in
10:45 52.9 °F 44.8 °F 30.12 in SE 4.0 mph 5.4 mph 74% 0.00 in
10:50 52.9 °F 43.4 °F 30.12 in SSE 4.4 mph 6.0 mph 70% 0.00 in
10:55 53.2 °F 44.4 °F 30.12 in SSE 4.2 mph 6.9 mph 72% 0.00 in
11:00 53.8 °F 44.2 °F 30.12 in East 4.0 mph 6.9 mph 70% 0.00 in
11:05 53.8 °F 44.2 °F 30.12 in ESE 3.1 mph 6.0 mph 70% 0.00 in
11:10 54.5 °F 44.1 °F 30.12 in East 2.9 mph 6.0 mph 68% 0.00 in
11:15 55.7 °F 44.6 °F 30.12 in ENE 3.6 mph 6.0 mph 66% 0.00 in
11:20 56.6 °F 44.2 °F 30.12 in East 4.4 mph 6.0 mph 63% 0.00 in
11:25 57.5 °F 45.1 °F 30.11 in East 4.5 mph 6.9 mph 63% 0.00 in
11:30 58.3 °F 44.5 °F 30.11 in East 3.4 mph 6.9 mph 60% 0.00 in
11:35 58.4 °F 40.9 °F 30.11 in SE 3.7 mph 6.9 mph 52% 0.00 in
11:40 59.0 °F 43.3 °F 30.11 in ESE 3.9 mph 6.9 mph 56% 0.00 in
11:45 59.5 °F 41.9 °F 30.11 in ENE 3.9 mph 6.0 mph 52% 0.00 in
11:50 60.2 °F 38.8 °F 30.12 in NNE 4.7 mph 7.6 mph 45% 0.00 in
11:55 59.7 °F 37.8 °F 30.11 in ENE 4.9 mph 7.6 mph 44% 0.00 in
12:00 59.5 °F 39.3 °F 30.11 in SSE 5.4 mph 7.6 mph 47% 0.00 in
12:05 59.5 °F 39.3 °F 30.11 in SE 5.9 mph 6.9 mph 47% 0.00 in
12:10 60.2 °F 37.7 °F 30.11 in SE 5.5 mph 6.0 mph 43% 0.00 in
12:15 60.4 °F 37.2 °F 30.11 in SE 5.1 mph 8.3 mph 42% 0.00 in
12:21 61.1 °F 37.3 °F 30.11 in ESE 5.9 mph 8.3 mph 41% 0.00 in
12:26 61.5 °F 38.2 °F 30.11 in ESE 6.2 mph 9.2 mph 42% 0.00 in
12:31 62.6 °F 41.0 °F 30.10 in East 6.1 mph 9.2 mph 45% 0.00 in
12:36 62.6 °F 37.9 °F 30.10 in ENE 5.0 mph 7.6 mph 40% 0.00 in
12:41 62.9 °F 37.6 °F 30.09 in ESE 4.7 mph 9.2 mph 39% 0.00 in
12:46 62.9 °F 37.6 °F 30.09 in ESE 5.1 mph 9.2 mph 39% 0.00 in
12:51 62.6 °F 36.6 °F 30.09 in ESE 4.5 mph 6.0 mph 38% 0.00 in
12:56 62.0 °F 35.5 °F 30.09 in SE 4.4 mph 6.0 mph 37% 0.00 in
13:01 62.2 °F 35.6 °F 30.09 in SE 5.4 mph 9.2 mph 37% 0.00 in
13:06 62.2 °F 35.6 °F 30.08 in ESE 5.9 mph 9.2 mph 37% 0.00 in
13:11 62.9 °F 35.6 °F 30.08 in SE 5.1 mph 6.0 mph 36% 0.00 in
13:16 63.5 °F 35.4 °F 30.08 in SE 5.2 mph 8.3 mph 35% 0.00 in
13:21 64.4 °F 37.6 °F 30.08 in ESE 5.8 mph 8.3 mph 37% 0.00 in
13:26 65.6 °F 38.0 °F 30.08 in East 5.0 mph 7.6 mph 36% 0.00 in
13:31 65.1 °F 33.7 °F 30.08 in ESE 5.0 mph 9.2 mph 31% 0.00 in
13:36 64.4 °F 33.9 °F 30.07 in SSE 6.0 mph 9.2 mph 32% 0.00 in
13:41 64.7 °F 35.0 °F 30.07 in SSE 5.6 mph 7.6 mph 33% 0.00 in
13:46 64.9 °F 35.9 °F 30.07 in ESE 6.2 mph 8.3 mph 34% 0.00 in
13:51 64.9 °F 33.6 °F 30.07 in East 5.8 mph 8.3 mph 31% 0.00 in
13:56 64.7 °F 32.6 °F 30.07 in SE 5.4 mph 8.3 mph 30% 0.00 in
14:01 64.4 °F 33.9 °F 30.06 in SSE 6.1 mph 8.3 mph 32% 0.00 in
14:06 64.4 °F 33.9 °F 30.06 in SE 6.4 mph 6.9 mph 32% 0.00 in
14:11 65.5 °F 36.4 °F 30.06 in ESE 6.4 mph 9.2 mph 34% 0.00 in
14:16 65.3 °F 34.7 °F 30.06 in SSE 6.4 mph 10.7 mph 32% 0.00 in
14:43 65.6 °F 34.2 °F 30.05 in SE 5.2 mph 9.8 mph 31% 0.00 in
14:48 66.4 °F 35.6 °F 30.05 in ESE 5.8 mph 9.2 mph 32% 0.00 in
14:53 66.4 °F 34.8 °F 30.05 in ENE 6.2 mph 9.2 mph 31% 0.00 in
14:58 66.4 °F 34.0 °F 30.05 in SE 5.2 mph 7.6 mph 30% 0.00 in
15:03 65.8 °F 31.8 °F 30.05 in SE 6.6 mph 10.7 mph 28% 0.00 in
15:08 65.1 °F 31.2 °F 30.04 in SE 7.3 mph 10.7 mph 28% 0.00 in
15:13 64.7 °F 35.0 °F 30.04 in SSE 5.9 mph 9.8 mph 33% 0.00 in
15:18 65.5 °F 34.1 °F 30.04 in SE 5.1 mph 6.9 mph 31% 0.00 in
15:23 66.0 °F 35.3 °F 30.04 in ESE 5.3 mph 7.6 mph 32% 0.00 in
15:28 65.3 °F 33.9 °F 30.04 in SE 5.9 mph 8.3 mph 31% 0.00 in
15:33 65.3 °F 34.7 °F 30.05 in SE 6.5 mph 10.7 mph 32% 0.00 in
15:38 65.8 °F 35.2 °F 30.05 in East 6.0 mph 10.7 mph 32% 0.00 in
15:43 65.8 °F 33.5 °F 30.04 in ESE 5.8 mph 9.8 mph 30% 0.00 in
15:48 65.6 °F 34.2 °F 30.04 in ESE 7.0 mph 9.8 mph 31% 0.00 in
15:53 65.3 °F 36.2 °F 30.04 in SE 6.5 mph 7.6 mph 34% 0.00 in
Export, Pennsylvania, USA
Compliments of Weather Underground